createdAt,value
2022-11-18T00:01:33.162Z,7.90
2022-11-18T00:04:02.302Z,7.80
2022-11-18T00:06:31.298Z,8.60
2022-11-18T00:09:01.477Z,8.90
2022-11-18T00:11:49.013Z,6.50
2022-11-18T00:14:21.096Z,11.80
2022-11-18T00:16:55.587Z,6.80
2022-11-18T00:19:36.572Z,9.40
2022-11-18T00:22:06.953Z,7.50
2022-11-18T00:24:35.357Z,6.60
2022-11-18T00:27:03.963Z,10.50
2022-11-18T00:29:32.385Z,10.60
2022-11-18T00:32:00.731Z,7.10
2022-11-18T00:34:29.125Z,7.60
2022-11-18T00:36:57.527Z,7.50
2022-11-18T00:39:26.468Z,9.60
2022-11-18T00:42:13.480Z,8.70
2022-11-18T00:44:41.744Z,7.70
2022-11-18T00:47:10.551Z,9.20
2022-11-18T00:49:38.770Z,7.20
2022-11-18T00:52:07.185Z,11.50
2022-11-18T00:54:35.389Z,10.50
2022-11-18T00:57:05.479Z,8.40
2022-11-18T00:59:34.232Z,8.70
2022-11-18T01:02:03.461Z,11.30
2022-11-18T01:04:31.861Z,9.40
2022-11-18T01:07:00.248Z,9.60
2022-11-18T01:09:28.691Z,10.30
2022-11-18T01:12:15.651Z,14.30
2022-11-18T01:14:43.953Z,8.70
2022-11-18T01:17:12.548Z,8.80
2022-11-18T01:19:40.862Z,10.90
2022-11-18T01:22:09.157Z,9.70
2022-11-18T01:24:37.450Z,9.80
2022-11-18T01:27:05.799Z,10.50
2022-11-18T01:29:34.168Z,9.70
2022-11-18T01:32:23.426Z,12.40
2022-11-18T01:34:50.769Z,11.30
2022-11-18T01:37:19.296Z,10.70
2022-11-18T01:39:47.607Z,9.60
2022-11-18T01:42:18.008Z,9.40
2022-11-18T01:44:57.421Z,11.30
2022-11-18T01:47:35.749Z,13.40
2022-11-18T01:50:06.029Z,9.30
2022-11-18T01:52:35.777Z,10.00
2022-11-18T01:55:11.426Z,12.30
2022-11-18T01:57:41.167Z,10.40
2022-11-18T02:00:10.051Z,14.20
2022-11-18T02:02:39.019Z,13.80
2022-11-18T02:05:10.847Z,13.10
2022-11-18T02:07:43.287Z,10.10
2022-11-18T02:10:21.020Z,9.20
2022-11-18T02:12:51.781Z,12.80
2022-11-18T02:15:50.346Z,10.80
2022-11-18T02:18:31.197Z,14.90
2022-11-18T02:21:16.640Z,14.90
2022-11-18T02:23:54.020Z,14.00
2022-11-18T02:26:48.271Z,11.00
2022-11-18T02:29:21.425Z,12.10
2022-11-18T02:32:04.063Z,12.90
2022-11-18T02:34:53.489Z,13.30
2022-11-18T02:37:50.270Z,12.80
2022-11-18T02:40:35.086Z,13.80
2022-11-18T02:43:26.433Z,11.60
2022-11-18T02:46:00.745Z,13.50
2022-11-18T02:48:33.261Z,14.90
2022-11-18T02:51:06.104Z,14.90
2022-11-18T02:53:36.424Z,13.10
2022-11-18T02:56:06.481Z,15.70
2022-11-18T02:58:34.893Z,15.10
2022-11-18T03:01:03.301Z,14.10
2022-11-18T03:03:34.360Z,13.10
2022-11-18T03:06:12.021Z,17.00
2022-11-18T03:08:50.269Z,19.00
2022-11-18T03:11:29.706Z,16.20
2022-11-18T03:14:28.940Z,15.80
2022-11-18T03:17:03.312Z,18.70
2022-11-18T03:20:02.962Z,18.60
2022-11-18T03:22:51.219Z,19.80
2022-11-18T03:25:22.013Z,16.10
2022-11-18T03:27:55.607Z,12.90
2022-11-18T03:30:25.168Z,16.20
2022-11-18T03:33:06.382Z,17.70
2022-11-18T03:35:39.534Z,21.30
2022-11-18T03:38:13.729Z,18.30
2022-11-18T03:40:47.815Z,13.10
2022-11-18T03:43:21.375Z,16.00
2022-11-18T03:45:57.197Z,17.20
2022-11-18T03:48:36.500Z,15.60
2022-11-18T03:51:12.232Z,17.80
2022-11-18T03:53:48.155Z,15.50
2022-11-18T03:56:22.919Z,14.10
2022-11-18T03:59:26.890Z,14.50
2022-11-18T04:02:00.107Z,16.00
2022-11-18T04:04:29.245Z,14.40
2022-11-18T04:07:12.932Z,17.20
2022-11-18T04:09:51.300Z,14.70
2022-11-18T04:12:21.574Z,16.50
2022-11-18T04:14:52.568Z,16.40
2022-11-18T04:17:22.948Z,17.30
2022-11-18T04:19:51.493Z,14.70
2022-11-18T04:22:20.362Z,15.00
2022-11-18T04:24:49.011Z,14.10
2022-11-18T04:27:17.239Z,14.70
2022-11-18T04:29:45.591Z,14.40
2022-11-18T04:32:14.340Z,16.60
2022-11-18T04:34:42.669Z,16.50
2022-11-18T04:37:10.963Z,17.80
2022-11-18T04:39:39.274Z,15.90
2022-11-18T04:42:07.568Z,18.10
2022-11-18T04:44:36.099Z,11.50
2022-11-18T04:47:06.172Z,12.80
2022-11-18T04:49:35.613Z,11.70
2022-11-18T04:52:04.521Z,12.00
2022-11-18T04:54:32.919Z,12.40
2022-11-18T04:57:01.312Z,12.10
2022-11-18T04:59:30.884Z,12.80
2022-11-18T05:02:01.311Z,14.60
2022-11-18T05:04:33.325Z,11.90
2022-11-18T05:07:04.220Z,12.90
2022-11-18T05:09:33.587Z,11.70
2022-11-18T05:12:21.156Z,13.50
2022-11-18T05:14:50.750Z,13.00
2022-11-18T05:17:19.639Z,13.00
2022-11-18T05:19:48.062Z,13.00
2022-11-18T05:22:16.876Z,13.00
2022-11-18T05:24:45.228Z,13.90
2022-11-18T05:27:14.595Z,13.20
2022-11-18T05:29:43.376Z,17.40
2022-11-18T05:32:12.179Z,13.80
2022-11-18T05:34:42.042Z,16.80
2022-11-18T05:37:10.965Z,14.30
2022-11-18T05:39:39.605Z,14.90
2022-11-18T05:42:26.878Z,13.30
2022-11-18T05:44:58.503Z,13.30
2022-11-18T05:47:27.375Z,16.10
2022-11-18T05:49:55.772Z,12.00
2022-11-18T05:52:24.090Z,13.40
2022-11-18T05:54:52.461Z,15.70
2022-11-18T05:57:20.997Z,19.20
2022-11-18T05:59:49.254Z,15.00
2022-11-18T06:02:24.073Z,15.50
2022-11-18T06:05:00.144Z,19.80
2022-11-18T06:07:30.607Z,21.30
2022-11-18T06:10:05.169Z,18.90
2022-11-18T06:12:42.023Z,20.40
2022-11-18T06:15:16.536Z,21.90
2022-11-18T06:18:08.500Z,18.10
2022-11-18T06:20:39.326Z,20.70
2022-11-18T06:23:07.693Z,20.70
2022-11-18T06:25:39.724Z,20.10
2022-11-18T06:28:11.175Z,22.30
2022-11-18T06:30:39.823Z,24.10
2022-11-18T06:33:08.764Z,27.00
2022-11-18T06:35:37.243Z,32.50
2022-11-18T06:38:05.548Z,32.80
2022-11-18T06:40:35.418Z,23.20
2022-11-18T06:43:26.654Z,30.80
2022-11-18T06:46:20.787Z,21.90
2022-11-18T06:48:49.217Z,20.60
2022-11-18T06:51:17.688Z,20.80
2022-11-18T06:53:46.114Z,21.60
2022-11-18T06:56:16.593Z,21.50
2022-11-18T06:58:45.213Z,25.10
2022-11-18T07:01:15.019Z,22.00
2022-11-18T07:03:44.876Z,15.80
2022-11-18T07:06:16.000Z,23.80
2022-11-18T07:08:44.414Z,27.20
2022-11-18T07:11:15.613Z,24.90
2022-11-18T07:13:45.457Z,26.10
2022-11-18T07:16:23.208Z,26.40
2022-11-18T07:18:52.939Z,26.10
2022-11-18T07:21:27.247Z,22.80
2022-11-18T07:23:56.880Z,23.20
2022-11-18T07:26:25.447Z,22.00
2022-11-18T07:28:54.273Z,25.10
2022-11-18T07:31:22.679Z,23.50
2022-11-18T07:33:54.928Z,22.10
2022-11-18T07:36:29.676Z,21.80
2022-11-18T07:39:02.258Z,20.70
2022-11-18T07:41:30.873Z,21.00
2022-11-18T07:44:02.384Z,20.60
2022-11-18T07:46:36.066Z,24.70
2022-11-18T07:49:09.517Z,24.50
2022-11-18T07:51:40.351Z,29.60
2022-11-18T07:54:14.771Z,22.20
2022-11-18T07:56:43.226Z,24.80
2022-11-18T07:59:11.839Z,31.50
2022-11-18T08:01:41.087Z,24.00
2022-11-18T08:04:11.928Z,24.20
2022-11-18T08:06:40.333Z,24.80
2022-11-18T08:09:08.787Z,24.90
2022-11-18T08:11:37.201Z,23.90
2022-11-18T08:14:05.659Z,22.50
2022-11-18T08:16:34.019Z,24.50
2022-11-18T08:19:02.567Z,31.80
2022-11-18T08:21:30.907Z,27.60
2022-11-18T08:24:00.037Z,28.30
2022-11-18T08:26:28.526Z,24.20
2022-11-18T08:28:58.040Z,28.60
2022-11-18T08:31:28.667Z,26.80
2022-11-18T08:33:57.915Z,29.10
2022-11-18T08:36:28.451Z,26.80
2022-11-18T08:38:58.781Z,24.60
2022-11-18T08:41:39.452Z,24.70
2022-11-18T08:44:11.202Z,30.00
2022-11-18T08:46:39.510Z,24.60
2022-11-18T08:49:07.826Z,26.90
2022-11-18T08:51:36.202Z,27.40
2022-11-18T08:54:04.829Z,25.00
2022-11-18T08:56:33.054Z,25.00
2022-11-18T08:59:01.344Z,26.70
2022-11-18T09:01:29.735Z,29.50
2022-11-18T09:03:58.200Z,25.60
2022-11-18T09:06:26.927Z,31.80
2022-11-18T09:08:55.471Z,30.20
2022-11-18T09:11:26.238Z,28.80
2022-11-18T09:16:46.180Z,32.10
2022-11-18T09:19:46.665Z,28.80
2022-11-18T09:22:05.733Z,31.10
2022-11-18T09:24:34.283Z,32.40
2022-11-18T09:27:10.795Z,32.50
2022-11-18T09:29:42.207Z,29.40
2022-11-18T09:32:11.158Z,33.80
2022-11-18T09:34:39.502Z,34.40
2022-11-18T09:37:07.952Z,31.50
2022-11-18T09:39:39.521Z,28.30
2022-11-18T09:42:29.364Z,33.70
2022-11-18T09:45:11.727Z,34.00
2022-11-18T09:47:41.667Z,32.10
2022-11-18T09:50:47.416Z,37.70
2022-11-18T09:53:09.240Z,29.70
2022-11-18T09:55:39.889Z,36.20
2022-11-18T09:58:14.044Z,34.10
2022-11-18T10:00:44.068Z,37.70
2022-11-18T10:03:23.632Z,37.90
2022-11-18T10:06:25.196Z,39.30
2022-11-18T10:08:53.546Z,34.90
2022-11-18T10:11:25.013Z,43.30
2022-11-18T10:14:19.798Z,41.80
2022-11-18T10:17:27.376Z,37.20
2022-11-18T10:20:22.087Z,34.50
2022-11-18T10:23:09.330Z,35.40
2022-11-18T10:25:37.654Z,35.50
2022-11-18T10:28:18.621Z,33.60
2022-11-18T10:30:46.961Z,35.80
2022-11-18T10:33:28.499Z,36.50
2022-11-18T10:36:29.758Z,41.20
2022-11-18T10:39:11.946Z,32.80
2022-11-18T10:41:46.307Z,32.10
2022-11-18T10:44:36.184Z,32.40
2022-11-18T10:47:22.234Z,35.60
2022-11-18T10:49:55.528Z,37.90
2022-11-18T10:52:24.038Z,39.30
2022-11-18T10:55:14.390Z,34.40
2022-11-18T10:57:43.960Z,35.40
2022-11-18T11:00:43.869Z,32.80
2022-11-18T11:03:36.176Z,35.70
2022-11-18T11:06:16.049Z,35.20
2022-11-18T11:09:09.460Z,41.10
2022-11-18T11:11:43.518Z,35.30
2022-11-18T11:14:33.947Z,36.10
2022-11-18T11:17:08.626Z,37.80
2022-11-18T11:20:01.344Z,36.90
2022-11-18T11:22:29.626Z,40.10
2022-11-18T11:24:58.097Z,41.00
2022-11-18T11:30:45.352Z,42.10
2022-11-18T11:33:51.529Z,40.50
2022-11-18T11:36:39.946Z,43.10
2022-11-18T11:39:14.314Z,37.90
2022-11-18T11:41:54.372Z,37.00
2022-11-18T11:44:44.499Z,42.00
2022-11-18T11:47:50.090Z,41.00
2022-11-18T11:51:03.365Z,36.60
2022-11-18T11:54:13.140Z,38.40
2022-11-18T11:57:09.156Z,45.20
2022-11-18T11:59:58.973Z,37.60
2022-11-18T12:02:53.376Z,42.00
2022-11-18T12:05:36.330Z,41.60
2022-11-18T12:08:13.059Z,42.80
2022-11-18T12:10:44.636Z,42.30
2022-11-18T12:13:24.001Z,48.70
2022-11-18T12:15:52.314Z,49.30
2022-11-18T12:18:42.883Z,48.80
2022-11-18T12:21:46.228Z,44.70
2022-11-18T12:24:17.566Z,47.50
2022-11-18T12:26:48.078Z,49.20
2022-11-18T12:29:19.426Z,48.00
2022-11-18T12:31:58.914Z,52.20
2022-11-18T12:34:38.381Z,55.60
2022-11-18T12:37:25.070Z,47.10
2022-11-18T12:39:56.355Z,46.10
2022-11-18T12:42:58.427Z,47.40
2022-11-18T12:45:42.271Z,42.20
2022-11-18T12:48:33.388Z,41.50
2022-11-18T12:51:03.483Z,44.90
2022-11-18T12:53:37.846Z,42.50
2022-11-18T12:56:27.078Z,50.80
2022-11-18T12:58:57.775Z,60.90
2022-11-18T13:01:29.496Z,44.80
2022-11-18T13:04:20.172Z,41.20
2022-11-18T13:06:48.564Z,41.90
2022-11-18T13:09:30.664Z,43.90
2022-11-18T13:12:14.507Z,41.00
2022-11-18T13:15:02.614Z,46.60
2022-11-18T13:17:52.033Z,44.40
2022-11-18T13:20:37.085Z,44.50
2022-11-18T13:23:33.440Z,40.70
2022-11-18T13:26:33.098Z,40.70
2022-11-18T13:29:54.354Z,39.30
2022-11-18T13:32:25.262Z,39.20
2022-11-18T13:35:29.486Z,36.00
2022-11-18T13:38:00.997Z,34.60
2022-11-18T13:40:32.357Z,40.10
2022-11-18T13:43:00.664Z,35.30
2022-11-18T13:45:30.624Z,37.30
2022-11-18T13:48:06.013Z,40.00
2022-11-18T13:50:46.961Z,39.80
2022-11-18T13:53:38.336Z,42.60
2022-11-18T13:56:17.374Z,53.20
2022-11-18T14:01:47.339Z,51.20
2022-11-18T14:04:20.966Z,45.80
2022-11-18T14:06:49.680Z,41.80
2022-11-18T14:09:27.292Z,45.60
2022-11-18T14:12:03.797Z,38.90
2022-11-18T14:14:37.562Z,38.00
2022-11-18T14:17:27.322Z,41.60
2022-11-18T14:19:58.617Z,40.90
2022-11-18T14:22:31.377Z,45.20
2022-11-18T14:25:15.849Z,48.00
2022-11-18T14:27:45.745Z,49.50
2022-11-18T14:30:33.057Z,50.20
2022-11-18T14:33:15.916Z,50.30
2022-11-18T14:35:59.338Z,48.30
2022-11-18T14:41:47.083Z,40.00
2022-11-18T14:44:17.462Z,36.00
2022-11-18T14:46:55.666Z,38.60
2022-11-18T14:49:25.916Z,40.90
2022-11-18T14:51:55.455Z,42.90
2022-11-18T14:54:27.703Z,45.30
2022-11-18T14:57:02.959Z,42.90
2022-11-18T14:59:31.759Z,41.40
2022-11-18T15:02:00.332Z,35.70
2022-11-18T15:04:28.782Z,34.20
2022-11-18T15:06:57.173Z,33.90
2022-11-18T15:09:25.496Z,35.00
2022-11-18T15:11:53.813Z,37.50
2022-11-18T15:14:22.229Z,33.00
2022-11-18T15:16:50.661Z,32.30
2022-11-18T15:19:18.931Z,35.00
2022-11-18T15:21:47.231Z,34.90
2022-11-18T15:24:16.240Z,39.40
2022-11-18T15:26:46.720Z,32.80
2022-11-18T15:29:18.937Z,30.70
2022-11-18T15:31:48.440Z,34.60
2022-11-18T15:34:20.725Z,30.10
2022-11-18T15:36:50.140Z,31.50
2022-11-18T15:39:18.704Z,30.60
2022-11-18T15:41:47.147Z,29.00
2022-11-18T15:44:16.607Z,31.90
2022-11-18T15:47:00.273Z,28.00
2022-11-18T15:49:28.715Z,28.60
2022-11-18T15:51:57.175Z,28.10
2022-11-18T15:54:25.503Z,32.80
2022-11-18T15:56:53.938Z,29.70
2022-11-18T15:59:22.230Z,26.20
2022-11-18T16:01:50.631Z,29.20
2022-11-18T16:04:19.491Z,27.80
2022-11-18T16:06:48.677Z,30.50
2022-11-18T16:09:17.876Z,32.60
2022-11-18T16:12:05.398Z,30.10
2022-11-18T16:14:38.395Z,28.40
2022-11-18T16:17:06.862Z,29.50
2022-11-18T16:19:35.170Z,31.40
2022-11-18T16:22:03.493Z,27.50
2022-11-18T16:24:31.917Z,28.40
2022-11-18T16:27:00.326Z,29.60
2022-11-18T16:29:28.635Z,31.00
2022-11-18T16:31:57.058Z,32.10
2022-11-18T16:34:28.171Z,29.70
2022-11-18T16:36:59.996Z,32.30
2022-11-18T16:39:28.957Z,29.10
2022-11-18T16:42:08.495Z,33.90
2022-11-18T16:44:37.938Z,30.40
2022-11-18T16:47:13.845Z,30.90
2022-11-18T16:49:44.198Z,36.10
2022-11-18T16:52:12.787Z,31.80
2022-11-18T16:54:45.170Z,33.00
2022-11-18T16:57:14.440Z,31.20
2022-11-18T16:59:42.908Z,39.40
2022-11-18T17:02:14.953Z,41.80
2022-11-18T17:04:43.444Z,44.90
2022-11-18T17:07:12.621Z,43.50
2022-11-18T17:09:40.983Z,38.30
2022-11-18T17:12:09.440Z,40.60
2022-11-18T17:14:38.914Z,37.40
2022-11-18T17:17:08.165Z,44.40
2022-11-18T17:19:36.853Z,37.60
2022-11-18T17:22:05.200Z,42.20
2022-11-18T17:24:33.577Z,42.50
2022-11-18T17:27:01.855Z,43.90
2022-11-18T17:29:30.208Z,40.40
2022-11-18T17:31:58.598Z,39.90
2022-11-18T17:34:26.897Z,41.80
2022-11-18T17:36:55.185Z,39.70
2022-11-18T17:39:23.583Z,44.10
2022-11-18T17:42:10.689Z,42.40
2022-11-18T17:44:39.010Z,39.80
2022-11-18T17:47:07.739Z,38.60
2022-11-18T17:49:36.263Z,47.00
2022-11-18T17:52:04.684Z,46.20
2022-11-18T17:54:33.079Z,43.90
2022-11-18T17:57:01.403Z,45.00
2022-11-18T17:59:29.679Z,44.10
2022-11-18T18:01:59.860Z,42.30
2022-11-18T18:04:28.651Z,41.90
2022-11-18T18:06:57.942Z,41.80
2022-11-18T18:09:30.473Z,48.60
2022-11-18T18:12:00.821Z,40.80
2022-11-18T18:14:29.320Z,44.90
2022-11-18T18:16:57.710Z,41.50
2022-11-18T18:19:26.072Z,38.50
2022-11-18T18:21:54.315Z,44.70
2022-11-18T18:24:23.138Z,43.60
2022-11-18T18:26:51.694Z,42.70
2022-11-18T18:29:19.973Z,42.20
2022-11-18T18:31:48.386Z,43.00
2022-11-18T18:34:17.621Z,40.40
2022-11-18T18:36:46.119Z,39.40
2022-11-18T18:39:14.536Z,38.80
2022-11-18T18:41:42.820Z,40.70
2022-11-18T18:44:15.373Z,40.50
2022-11-18T18:46:46.814Z,41.30
2022-11-18T18:49:20.627Z,41.70
2022-11-18T18:51:49.707Z,44.70
2022-11-18T18:54:20.186Z,41.00
2022-11-18T18:56:48.856Z,42.40
2022-11-18T18:59:34.732Z,45.40
2022-11-18T19:02:04.101Z,45.30
2022-11-18T19:04:32.550Z,43.80
2022-11-18T19:07:01.012Z,45.90
2022-11-18T19:09:29.823Z,42.10
2022-11-18T19:12:17.021Z,41.40
2022-11-18T19:14:45.456Z,44.80
2022-11-18T19:17:14.164Z,44.00
2022-11-18T19:20:01.757Z,48.30
2022-11-18T19:22:32.031Z,44.40
2022-11-18T19:25:01.679Z,51.60
2022-11-18T19:27:30.451Z,51.80
2022-11-18T19:29:58.896Z,50.30
2022-11-18T19:32:27.237Z,53.40
2022-11-18T19:34:55.523Z,54.40
2022-11-18T19:37:23.803Z,50.30
2022-11-18T19:39:52.209Z,49.70
2022-11-18T19:42:20.407Z,52.80
2022-11-18T19:44:48.615Z,49.70
2022-11-18T19:47:17.391Z,55.80
2022-11-18T19:49:45.739Z,51.80
2022-11-18T19:52:14.265Z,53.30
2022-11-18T19:54:42.762Z,55.50
2022-11-18T19:57:11.003Z,51.60
2022-11-18T19:59:39.822Z,51.40
2022-11-18T20:02:11.554Z,51.30
2022-11-18T20:04:39.958Z,55.30
2022-11-18T20:07:08.379Z,55.20
2022-11-18T20:09:36.710Z,56.00
2022-11-18T20:12:05.398Z,52.20
2022-11-18T20:14:33.624Z,50.00
2022-11-18T20:17:01.851Z,55.30
2022-11-18T20:19:30.181Z,53.20
2022-11-18T20:21:58.534Z,59.40
2022-11-18T20:24:26.888Z,58.70
2022-11-18T20:26:55.089Z,58.90
2022-11-18T20:29:23.400Z,57.60
2022-11-18T20:31:51.762Z,58.30
2022-11-18T20:34:20.084Z,54.80
2022-11-18T20:36:52.077Z,52.90
2022-11-18T20:39:20.765Z,51.10
2022-11-18T20:42:08.009Z,56.00
2022-11-18T20:44:36.608Z,51.80
2022-11-18T20:47:04.906Z,51.40
2022-11-18T20:49:33.579Z,48.60
2022-11-18T20:52:01.786Z,50.70
2022-11-18T20:54:30.042Z,52.90
2022-11-18T20:56:58.385Z,49.10
2022-11-18T20:59:26.716Z,45.30
2022-11-18T21:01:55.069Z,49.40
2022-11-18T21:04:23.527Z,49.00
2022-11-18T21:06:57.639Z,54.20
2022-11-18T21:09:26.616Z,52.80
2022-11-18T21:11:55.050Z,54.50
2022-11-18T21:14:25.609Z,49.10
2022-11-18T21:16:58.217Z,48.30
2022-11-18T21:19:27.873Z,47.40
2022-11-18T21:21:56.961Z,43.40
2022-11-18T21:24:34.617Z,42.20
2022-11-18T21:27:03.652Z,43.20
2022-11-18T21:29:33.441Z,43.00
2022-11-18T21:32:01.918Z,41.60
2022-11-18T21:34:30.653Z,41.60
2022-11-18T21:36:59.096Z,44.00
2022-11-18T21:39:27.850Z,39.60
2022-11-18T21:41:57.297Z,44.90
2022-11-18T21:44:28.541Z,45.00
2022-11-18T21:46:57.895Z,40.00
2022-11-18T21:49:26.471Z,40.30
2022-11-18T21:51:54.701Z,40.20
2022-11-18T21:54:23.003Z,39.00
2022-11-18T21:56:51.405Z,40.50
2022-11-18T21:59:19.783Z,38.50
2022-11-18T22:01:48.232Z,37.40
2022-11-18T22:04:35.621Z,36.50
2022-11-18T22:07:03.947Z,39.10
2022-11-18T22:09:36.512Z,38.30
2022-11-18T22:12:06.983Z,37.50
2022-11-18T22:14:36.278Z,35.40
2022-11-18T22:17:05.304Z,34.10
2022-11-18T22:19:33.945Z,39.40
2022-11-18T22:22:02.379Z,40.60
2022-11-18T22:24:30.681Z,37.20
2022-11-18T22:26:58.988Z,31.80
2022-11-18T22:29:27.299Z,30.50
2022-11-18T22:31:55.549Z,27.80
2022-11-18T22:34:23.837Z,31.00
2022-11-18T22:36:52.127Z,30.70
2022-11-18T22:39:20.609Z,27.20
2022-11-18T22:42:08.147Z,29.40
2022-11-18T22:44:36.478Z,26.40
2022-11-18T22:47:04.834Z,27.10
2022-11-18T22:49:33.152Z,27.80
2022-11-18T22:52:01.432Z,26.80
2022-11-18T22:54:44.993Z,25.50
2022-11-18T22:57:13.294Z,29.10
2022-11-18T22:59:41.615Z,25.10
2022-11-18T23:02:09.840Z,25.20
2022-11-18T23:04:38.155Z,24.60
2022-11-18T23:07:08.410Z,25.10
2022-11-18T23:09:36.647Z,25.20
2022-11-18T23:12:25.275Z,24.90
2022-11-18T23:14:53.490Z,26.00
2022-11-18T23:17:21.689Z,25.90
2022-11-18T23:19:50.154Z,25.40
2022-11-18T23:22:19.001Z,25.60
2022-11-18T23:24:47.383Z,25.50
2022-11-18T23:27:15.700Z,27.30
2022-11-18T23:29:44.038Z,25.40
2022-11-18T23:32:12.332Z,28.80
2022-11-18T23:34:40.580Z,27.80
2022-11-18T23:37:08.858Z,27.80
2022-11-18T23:39:37.533Z,25.60
2022-11-18T23:42:06.066Z,25.90
2022-11-18T23:44:46.478Z,31.20
2022-11-18T23:47:15.004Z,25.90
2022-11-18T23:49:43.330Z,27.70
2022-11-18T23:52:11.716Z,27.20
2022-11-18T23:54:39.904Z,27.60
2022-11-18T23:57:08.352Z,26.40
2022-11-18T23:59:36.582Z,27.50
